Time;durP1;ratioP1;P1;durP2;ratioP2;P2;SDS_P1;SDS_P2;PMS_P1;PMS_P2;Temp;Humidity;BMP_temperature;BMP_pressure;BME280_temperature;BME280_humidity;BME280_pressure;Samples;Min_cycle;Max_cycle;Signal;HPM_P1;HPM_P2
2023/12/18 00:02:07;;;;;;;730.40;674.03;;;7.90;99.90;;;;;;6332681;22;20015;-82
2023/12/18 00:04:32;;;;;;;738.17;681.83;;;7.90;99.90;;;;;;6302166;22;20498;-82
2023/12/18 00:06:58;;;;;;;834.58;762.70;;;7.90;99.90;;;;;;6303831;22;20025;-82
2023/12/18 00:09:24;;;;;;;779.22;717.40;;;7.90;99.90;;;;;;6303291;22;20033;-82
2023/12/18 00:11:50;;;;;;;742.10;684.60;;;7.90;99.90;;;;;;6304117;22;20029;-82
2023/12/18 00:14:16;;;;;;;741.30;684.10;;;7.90;99.90;;;;;;6303234;22;20509;-82
2023/12/18 00:16:41;;;;;;;767.50;708.17;;;7.90;99.90;;;;;;6277660;22;20083;-82
2023/12/18 00:19:07;;;;;;;802.38;738.13;;;7.90;99.90;;;;;;6304302;22;20014;-82
2023/12/18 00:21:33;;;;;;;813.58;749.95;;;7.90;99.90;;;;;;6300977;22;20159;-82
2023/12/18 00:23:58;;;;;;;795.60;733.67;;;7.90;99.90;;;;;;6278923;22;20019;-82
2023/12/18 00:26:24;;;;;;;781.90;719.55;;;7.90;99.90;;;;;;6304181;22;20015;-82
2023/12/18 00:28:50;;;;;;;800.30;737.92;;;7.80;99.90;;;;;;6302532;22;20015;-82
2023/12/18 00:31:15;;;;;;;794.35;729.47;;;7.90;99.90;;;;;;6303883;22;20427;-82
2023/12/18 00:33:41;;;;;;;790.58;730.05;;;7.90;99.90;;;;;;6302896;22;20010;-82
2023/12/18 00:36:07;;;;;;;752.25;694.63;;;7.90;99.90;;;;;;6302115;22;20015;-81
2023/12/18 00:38:33;;;;;;;755.30;698.08;;;7.80;99.90;;;;;;6303039;22;20092;-82
2023/12/18 00:40:59;;;;;;;765.95;707.22;;;7.90;99.90;;;;;;6303159;22;20007;-82
2023/12/18 00:43:25;;;;;;;790.72;727.58;;;7.90;99.90;;;;;;6302555;22;20086;-82
2023/12/18 00:45:51;;;;;;;756.30;696.97;;;7.90;99.90;;;;;;6303105;22;20047;-82
2023/12/18 00:48:16;;;;;;;765.75;704.90;;;7.90;99.90;;;;;;6302508;22;20023;-82
2023/12/18 00:50:42;;;;;;;796.05;732.85;;;7.90;99.90;;;;;;6302463;22;20007;-82
2023/12/18 00:53:09;;;;;;;753.85;696.13;;;7.90;99.90;;;;;;6303100;22;20061;-82
2023/12/18 00:55:35;;;;;;;741.58;684.95;;;7.90;99.90;;;;;;6302015;22;20014;-82
2023/12/18 00:58:00;;;;;;;756.22;697.97;;;7.90;99.90;;;;;;6302939;22;20026;-82
2023/12/18 01:00:26;;;;;;;779.17;718.67;;;7.90;99.90;;;;;;6278971;22;20086;-82
2023/12/18 01:02:51;;;;;;;777.90;717.20;;;7.90;99.90;;;;;;6279000;22;20320;-82
2023/12/18 01:05:17;;;;;;;732.47;677.20;;;7.90;99.90;;;;;;6303555;22;20029;-83
2023/12/18 01:07:43;;;;;;;744.03;687.05;;;8.00;99.90;;;;;;6305492;22;20058;-82
2023/12/18 01:10:09;;;;;;;761.58;703.10;;;7.90;99.90;;;;;;6304088;22;20018;-82
2023/12/18 01:12:35;;;;;;;775.80;714.97;;;8.00;99.90;;;;;;6332903;22;20023;-82
2023/12/18 01:15:01;;;;;;;799.50;736.45;;;8.00;99.90;;;;;;6305195;22;20015;-82
2023/12/18 01:17:27;;;;;;;816.53;751.05;;;8.00;99.90;;;;;;6303371;22;20022;-82
2023/12/18 01:19:53;;;;;;;808.53;743.60;;;7.90;99.90;;;;;;6332511;22;20442;-82
2023/12/18 01:22:18;;;;;;;724.90;669.38;;;8.00;99.90;;;;;;6304717;22;20101;-83
2023/12/18 01:24:44;;;;;;;796.95;734.15;;;8.00;99.90;;;;;;6278431;22;20018;-82
2023/12/18 01:27:10;;;;;;;757.47;698.47;;;8.00;99.90;;;;;;6305697;22;20023;-82
2023/12/18 01:29:40;;;;;;;782.72;720.30;;;8.00;99.90;;;;;;6304164;22;20057;-82
2023/12/18 01:32:08;;;;;;;767.28;708.75;;;8.00;99.90;;;;;;6304566;22;20542;-82
2023/12/18 01:34:33;;;;;;;753.00;695.05;;;8.00;99.90;;;;;;6303021;22;20023;-82
2023/12/18 01:36:59;;;;;;;767.00;707.72;;;8.00;99.90;;;;;;6279913;22;20018;-82
2023/12/18 01:39:25;;;;;;;793.10;730.67;;;8.00;99.90;;;;;;6303647;22;20087;-83
2023/12/18 01:41:50;;;;;;;732.92;676.05;;;8.00;99.90;;;;;;6305537;22;20030;-82
2023/12/18 01:44:16;;;;;;;780.72;720.35;;;8.00;99.90;;;;;;6305020;22;20085;-82
2023/12/18 01:46:44;;;;;;;752.72;694.45;;;8.00;99.90;;;;;;6303291;22;20022;-83
2023/12/18 01:49:09;;;;;;;778.67;717.85;;;8.00;99.90;;;;;;6304978;22;20083;-83
2023/12/18 01:51:36;;;;;;;782.42;721.70;;;8.00;99.90;;;;;;6302092;22;20377;-82
2023/12/18 01:54:03;;;;;;;782.17;722.10;;;8.00;99.90;;;;;;6305447;22;20019;-82
2023/12/18 01:56:30;;;;;;;787.63;722.92;;;8.00;99.90;;;;;;6278498;22;20687;-82
2023/12/18 01:58:59;;;;;;;750.35;693.13;;;8.00;99.90;;;;;;6298998;22;20557;-82
2023/12/18 02:01:26;;;;;;;811.95;746.42;;;8.00;99.90;;;;;;6299144;22;20443;-82
2023/12/18 02:03:53;;;;;;;743.97;687.30;;;8.00;99.90;;;;;;6299768;22;20043;-82
2023/12/18 02:06:21;;;;;;;769.50;709.70;;;8.00;99.90;;;;;;6297615;22;20030;-82
2023/12/18 02:08:47;;;;;;;762.40;702.38;;;8.00;99.90;;;;;;6299115;22;20047;-82
2023/12/18 02:11:13;;;;;;;778.92;717.90;;;8.00;99.90;;;;;;6298965;22;20019;-82
2023/12/18 02:13:40;;;;;;;779.35;718.88;;;8.00;99.90;;;;;;6298133;22;20085;-82
2023/12/18 02:16:06;;;;;;;782.63;720.22;;;8.00;99.90;;;;;;6299582;22;20015;-82
2023/12/18 02:18:32;;;;;;;804.47;741.72;;;8.00;99.90;;;;;;6274211;22;20274;-82
2023/12/18 02:20:58;;;;;;;876.95;802.45;;;8.00;99.90;;;;;;6297066;22;20026;-82
2023/12/18 02:23:24;;;;;;;736.35;679.78;;;8.00;99.90;;;;;;6299465;22;20019;-82
2023/12/18 02:25:50;;;;;;;741.33;685.03;;;8.00;99.90;;;;;;6300272;22;20015;-82
2023/12/18 02:28:17;;;;;;;751.13;693.90;;;8.00;99.90;;;;;;6298612;22;20023;-82
2023/12/18 02:30:43;;;;;;;716.28;661.83;;;8.00;99.90;;;;;;6299029;22;20015;-82
2023/12/18 02:33:09;;;;;;;741.58;684.75;;;7.90;99.90;;;;;;6273569;22;20033;-82
2023/12/18 02:35:35;;;;;;;755.97;697.97;;;8.00;99.90;;;;;;6297975;22;20023;-81
2023/12/18 02:38:00;;;;;;;753.25;694.65;;;8.00;99.90;;;;;;6300208;22;20080;-82
2023/12/18 02:40:27;;;;;;;751.97;694.60;;;7.90;99.90;;;;;;6301658;22;20011;-82
2023/12/18 02:42:53;;;;;;;769.95;710.25;;;8.00;99.90;;;;;;6299258;22;20015;-82
2023/12/18 02:45:18;;;;;;;756.50;699.45;;;8.00;99.90;;;;;;6298778;22;20019;-83
2023/12/18 02:47:44;;;;;;;765.33;706.25;;;8.00;99.90;;;;;;6298333;22;20015;-82
2023/12/18 02:50:10;;;;;;;774.08;713.90;;;8.00;99.90;;;;;;6297313;22;20025;-82
2023/12/18 02:52:36;;;;;;;786.75;725.67;;;7.90;99.90;;;;;;6299438;22;20015;-83
2023/12/18 02:55:02;;;;;;;772.63;712.08;;;8.00;99.90;;;;;;6298049;22;20101;-82
2023/12/18 02:57:28;;;;;;;732.88;676.58;;;8.00;99.90;;;;;;6272690;22;20262;-82
2023/12/18 02:59:53;;;;;;;753.78;696.35;;;8.00;99.90;;;;;;6298853;22;20321;-82
2023/12/18 03:02:20;;;;;;;795.85;733.92;;;8.00;99.90;;;;;;6299801;22;20073;-83
2023/12/18 03:04:46;;;;;;;724.88;669.08;;;7.90;99.90;;;;;;6297843;22;20015;-82
2023/12/18 03:07:12;;;;;;;749.67;692.47;;;8.00;99.90;;;;;;6299036;22;20090;-82
2023/12/18 03:09:37;;;;;;;763.67;705.17;;;8.00;99.90;;;;;;6297616;22;20022;-82
2023/12/18 03:12:03;;;;;;;742.72;685.17;;;8.00;99.90;;;;;;6299360;22;20021;-83
2023/12/18 03:14:29;;;;;;;731.75;675.38;;;8.00;99.90;;;;;;6297707;22;20546;-82
2023/12/18 03:16:55;;;;;;;774.72;715.42;;;8.00;99.90;;;;;;6298686;22;20015;-82
2023/12/18 03:19:21;;;;;;;762.88;704.63;;;8.00;99.90;;;;;;6298788;22;20441;-82
2023/12/18 03:21:47;;;;;;;808.17;742.45;;;8.10;99.90;;;;;;6297937;22;20026;-82
2023/12/18 03:24:13;;;;;;;758.08;699.38;;;8.00;99.90;;;;;;6297533;22;20469;-82
2023/12/18 03:26:38;;;;;;;729.67;674.47;;;8.00;99.90;;;;;;6298127;22;20026;-82
2023/12/18 03:29:04;;;;;;;758.25;699.70;;;8.00;99.90;;;;;;6299252;22;20018;-83
2023/12/18 03:31:30;;;;;;;840.97;772.25;;;8.00;99.90;;;;;;6297357;22;20098;-82
2023/12/18 03:33:57;;;;;;;767.05;708.10;;;8.00;99.90;;;;;;6298957;22;20042;-82
2023/12/18 03:36:22;;;;;;;823.60;758.53;;;8.00;99.90;;;;;;6297776;22;20019;-82
2023/12/18 03:38:48;;;;;;;775.65;715.78;;;8.00;99.90;;;;;;6297291;22;20111;-82
2023/12/18 03:41:14;;;;;;;776.63;716.42;;;8.00;99.90;;;;;;6298885;22;20011;-82
2023/12/18 03:43:40;;;;;;;741.80;684.67;;;8.00;99.90;;;;;;6298353;22;20456;-82
2023/12/18 03:46:06;;;;;;;753.25;695.17;;;8.00;99.90;;;;;;6297727;22;20019;-82
2023/12/18 03:48:32;;;;;;;772.35;711.35;;;8.00;99.90;;;;;;6298360;22;20466;-82
2023/12/18 03:50:57;;;;;;;749.35;692.20;;;8.00;99.90;;;;;;6297486;22;20015;-82
2023/12/18 03:53:23;;;;;;;759.40;700.95;;;8.00;99.90;;;;;;6297784;22;20019;-82
2023/12/18 03:55:49;;;;;;;768.40;709.00;;;8.00;99.90;;;;;;6297940;22;20015;-82
2023/12/18 03:58:14;;;;;;;776.58;717.42;;;8.10;99.90;;;;;;6297222;22;20367;-82
2023/12/18 04:00:41;;;;;;;818.80;753.45;;;8.10;99.90;;;;;;6298257;22;20462;-82
2023/12/18 04:03:07;;;;;;;792.50;730.88;;;8.00;99.90;;;;;;6272571;22;20347;-82
2023/12/18 04:05:33;;;;;;;793.65;731.42;;;8.10;99.90;;;;;;6298215;22;20062;-82
2023/12/18 04:07:59;;;;;;;771.88;712.45;;;8.00;99.90;;;;;;6273140;22;20321;-82
2023/12/18 04:10:24;;;;;;;821.17;755.85;;;8.10;99.90;;;;;;6272307;22;20545;-82
2023/12/18 04:12:51;;;;;;;771.75;712.03;;;8.10;99.90;;;;;;6297641;22;20057;-82
2023/12/18 04:15:17;;;;;;;786.33;724.40;;;8.10;99.90;;;;;;6297523;22;20312;-82
2023/12/18 04:17:43;;;;;;;789.40;727.05;;;8.10;99.90;;;;;;6298658;22;20061;-82
2023/12/18 04:20:09;;;;;;;788.20;726.38;;;8.10;99.90;;;;;;6270380;22;20023;-82
2023/12/18 04:22:35;;;;;;;728.92;673.05;;;8.10;99.90;;;;;;6298516;22;20050;-83
2023/12/18 04:25:00;;;;;;;734.92;679.35;;;8.10;99.90;;;;;;6298995;22;20093;-82
2023/12/18 04:27:26;;;;;;;819.33;752.42;;;8.10;99.90;;;;;;6296715;22;20019;-82
2023/12/18 04:29:52;;;;;;;750.38;692.42;;;8.10;99.90;;;;;;6298810;22;20011;-83
2023/12/18 04:32:17;;;;;;;786.33;724.80;;;8.10;99.90;;;;;;6298070;22;20411;-82
2023/12/18 04:34:44;;;;;;;779.20;718.97;;;8.10;99.90;;;;;;6297636;22;20015;-82
2023/12/18 04:37:10;;;;;;;756.30;698.10;;;8.10;99.90;;;;;;6300907;22;20386;-82
2023/12/18 04:39:37;;;;;;;763.55;704.42;;;8.20;99.90;;;;;;6299806;22;20019;-82
2023/12/18 04:42:03;;;;;;;746.33;689.55;;;8.20;99.90;;;;;;6299873;22;20015;-82
2023/12/18 04:44:29;;;;;;;807.33;743.50;;;8.20;99.90;;;;;;6299117;22;20041;-82
2023/12/18 04:46:55;;;;;;;738.67;681.92;;;8.20;99.90;;;;;;6300758;22;20090;-82
2023/12/18 04:49:20;;;;;;;783.72;722.08;;;8.20;99.90;;;;;;6299424;22;20011;-82
2023/12/18 04:51:47;;;;;;;775.83;714.72;;;8.20;99.90;;;;;;6301435;22;20052;-82
2023/12/18 04:54:13;;;;;;;843.35;774.72;;;8.10;99.90;;;;;;6300214;22;20030;-82
2023/12/18 04:56:39;;;;;;;811.13;744.78;;;8.20;99.90;;;;;;6298712;22;20022;-82
2023/12/18 04:59:04;;;;;;;810.17;745.55;;;8.20;99.90;;;;;;6300636;22;20015;-82
2023/12/18 05:01:30;;;;;;;802.72;739.33;;;8.20;99.90;;;;;;6298499;22;20015;-82
2023/12/18 05:03:56;;;;;;;802.63;739.47;;;8.10;99.90;;;;;;6274383;22;20093;-82
2023/12/18 05:06:23;;;;;;;773.67;712.25;;;8.20;99.90;;;;;;6298879;22;20315;-82
2023/12/18 05:08:50;;;;;;;838.67;769.78;;;8.10;99.90;;;;;;6298737;22;20027;-82
2023/12/18 05:11:18;;;;;;;789.25;727.25;;;8.10;99.90;;;;;;6274082;22;20065;-81
2023/12/18 05:13:44;;;;;;;817.58;752.80;;;8.10;99.90;;;;;;6274125;22;20019;-82
2023/12/18 05:16:10;;;;;;;799.00;734.83;;;8.10;99.90;;;;;;6273186;22;20026;-82
2023/12/18 05:18:36;;;;;;;776.95;717.05;;;8.10;99.90;;;;;;6298270;22;20046;-82
2023/12/18 05:21:04;;;;;;;797.08;732.55;;;8.10;99.90;;;;;;6296394;22;20012;-82
2023/12/18 05:23:30;;;;;;;750.17;692.75;;;8.10;99.90;;;;;;6298677;22;20114;-81
2023/12/18 05:25:55;;;;;;;708.58;655.17;;;8.10;99.90;;;;;;6299611;22;20047;-82
2023/12/18 05:28:22;;;;;;;705.35;652.05;;;8.10;99.90;;;;;;6273756;22;20443;-82
2023/12/18 05:30:47;;;;;;;685.63;634.42;;;8.20;99.90;;;;;;6297751;22;20430;-82
2023/12/18 05:33:13;;;;;;;715.33;661.60;;;8.20;99.90;;;;;;6299207;22;20038;-82
2023/12/18 05:35:39;;;;;;;708.97;654.95;;;8.20;99.90;;;;;;6298416;22;20019;-81
2023/12/18 05:38:07;;;;;;;712.50;658.97;;;8.20;99.90;;;;;;6298703;22;20482;-82
2023/12/18 05:40:33;;;;;;;735.90;678.97;;;8.20;99.90;;;;;;6298347;22;20023;-83
2023/12/18 05:42:59;;;;;;;707.55;654.63;;;8.20;99.90;;;;;;6300282;22;20030;-82
2023/12/18 05:45:25;;;;;;;688.03;636.45;;;8.20;99.90;;;;;;6297957;22;20012;-82
2023/12/18 05:47:51;;;;;;;685.17;633.25;;;8.30;99.90;;;;;;6300484;22;20447;-82
2023/12/18 05:50:16;;;;;;;717.40;662.90;;;8.30;99.90;;;;;;6297828;22;20061;-82
2023/12/18 05:52:42;;;;;;;692.92;640.90;;;8.30;99.90;;;;;;6299004;22;20060;-82
2023/12/18 05:55:09;;;;;;;675.30;624.80;;;8.30;99.90;;;;;;6299696;22;20344;-82
2023/12/18 05:57:36;;;;;;;716.42;662.42;;;8.30;99.90;;;;;;6300595;22;20018;-83
2023/12/18 06:00:03;;;;;;;712.30;658.47;;;8.40;99.90;;;;;;6299885;22;20046;-83
2023/12/18 06:02:29;;;;;;;671.03;620.60;;;8.30;99.90;;;;;;6299397;22;20019;-83
2023/12/18 06:04:55;;;;;;;677.38;625.97;;;8.40;99.90;;;;;;6298232;22;20352;-82
2023/12/18 06:07:21;;;;;;;696.50;644.40;;;8.40;99.90;;;;;;6299746;22;20007;-82
2023/12/18 06:09:46;;;;;;;701.20;648.55;;;8.30;99.90;;;;;;6273901;22;20026;-83
2023/12/18 06:12:12;;;;;;;715.53;660.60;;;8.30;99.90;;;;;;6299043;22;20094;-82
2023/12/18 06:14:38;;;;;;;693.45;641.78;;;8.30;99.90;;;;;;6273424;22;20043;-82
2023/12/18 06:17:04;;;;;;;682.33;631.55;;;8.40;99.90;;;;;;6300584;22;20015;-83
2023/12/18 06:19:30;;;;;;;673.08;622.47;;;8.30;99.90;;;;;;6296819;22;20073;-82
2023/12/18 06:21:56;;;;;;;712.72;659.10;;;8.30;99.90;;;;;;6274598;22;20008;-83
2023/12/18 06:24:22;;;;;;;683.40;632.47;;;8.30;99.90;;;;;;6299579;22;20031;-82
2023/12/18 06:26:48;;;;;;;676.15;625.35;;;8.30;99.90;;;;;;6298552;22;20011;-83
2023/12/18 06:29:13;;;;;;;672.80;622.33;;;8.30;99.90;;;;;;6301579;22;20015;-83
2023/12/18 06:31:39;;;;;;;714.47;660.40;;;8.20;99.90;;;;;;6301063;22;20086;-83
2023/12/18 06:34:05;;;;;;;689.72;637.50;;;8.20;99.90;;;;;;6298674;22;20101;-82
2023/12/18 06:36:30;;;;;;;714.53;660.95;;;7.60;99.90;;;;;;6297845;22;20037;-83
2023/12/18 06:38:56;;;;;;;678.05;627.30;;;8.20;99.90;;;;;;6299651;22;20064;-83
2023/12/18 06:41:22;;;;;;;683.25;631.35;;;8.20;99.90;;;;;;6298104;22;20421;-82
2023/12/18 06:43:48;;;;;;;697.35;644.60;;;8.20;99.90;;;;;;6298753;22;20015;-82
2023/12/18 06:46:13;;;;;;;729.00;673.65;;;8.20;99.90;;;;;;6273108;22;20015;-83
2023/12/18 06:48:41;;;;;;;718.50;663.35;;;8.10;99.90;;;;;;6298416;22;20047;-82
2023/12/18 06:51:09;;;;;;;693.25;640.83;;;8.10;99.90;;;;;;6272213;22;20026;-82
2023/12/18 06:53:35;;;;;;;698.25;645.03;;;8.20;99.90;;;;;;6299106;22;20026;-82
2023/12/18 06:56:01;;;;;;;732.47;676.20;;;8.10;99.90;;;;;;6297865;22;20411;-83
2023/12/18 06:58:26;;;;;;;711.10;656.65;;;8.10;99.90;;;;;;6298810;22;20094;-82
2023/12/18 07:00:52;;;;;;;703.80;650.30;;;8.10;99.90;;;;;;6298902;22;20019;-82
2023/12/18 07:03:18;;;;;;;712.67;658.70;;;8.10;99.90;;;;;;6297622;22;20016;-82
2023/12/18 07:05:43;;;;;;;695.15;642.17;;;8.10;99.90;;;;;;6298120;22;20051;-83
2023/12/18 07:08:09;;;;;;;717.92;663.65;;;8.10;99.90;;;;;;6297489;22;20015;-82
2023/12/18 07:10:35;;;;;;;725.67;670.15;;;8.10;99.90;;;;;;6298759;22;20012;-82
2023/12/18 07:13:00;;;;;;;702.70;649.42;;;8.10;99.90;;;;;;6273544;22;20042;-82
2023/12/18 07:15:26;;;;;;;709.75;656.05;;;8.10;99.90;;;;;;6296900;22;20015;-83
2023/12/18 07:17:52;;;;;;;736.50;680.33;;;8.10;99.90;;;;;;6299270;22;20029;-82
2023/12/18 07:20:18;;;;;;;729.60;674.60;;;8.10;99.90;;;;;;6297024;22;20041;-83
2023/12/18 07:22:44;;;;;;;735.58;679.25;;;8.10;99.90;;;;;;6298073;22;20019;-82
2023/12/18 07:25:10;;;;;;;741.42;683.92;;;8.10;99.90;;;;;;6298639;22;20460;-83
2023/12/18 07:27:36;;;;;;;748.10;691.38;;;8.10;99.90;;;;;;6272659;22;20093;-82
2023/12/18 07:30:03;;;;;;;709.38;655.78;;;8.10;99.90;;;;;;6298166;22;20015;-82
2023/12/18 07:32:31;;;;;;;704.55;651.35;;;8.10;99.90;;;;;;6297656;22;20027;-83
2023/12/18 07:34:59;;;;;;;718.10;663.45;;;8.10;99.90;;;;;;6298050;22;20475;-82
2023/12/18 07:37:29;;;;;;;733.60;677.67;;;8.10;99.90;;;;;;6297044;22;20041;-82
2023/12/18 07:39:56;;;;;;;718.28;663.47;;;8.10;99.90;;;;;;6301007;22;20015;-82
2023/12/18 07:42:23;;;;;;;674.60;623.78;;;8.10;99.90;;;;;;6299799;22;20497;-84
2023/12/18 07:44:49;;;;;;;733.97;677.72;;;8.10;99.90;;;;;;6271836;22;20019;-82
2023/12/18 07:47:15;;;;;;;724.33;669.13;;;8.20;99.90;;;;;;6298510;22;20018;-83
2023/12/18 07:49:41;;;;;;;699.72;646.92;;;8.10;99.90;;;;;;6297418;22;20011;-82
2023/12/18 07:52:07;;;;;;;714.65;660.78;;;8.10;99.90;;;;;;6298429;22;20123;-83
2023/12/18 07:54:32;;;;;;;715.70;661.03;;;8.10;99.90;;;;;;6271160;22;20098;-83
2023/12/18 07:56:58;;;;;;;726.35;671.03;;;8.20;99.90;;;;;;6298779;22;20446;-83
2023/12/18 07:59:24;;;;;;;695.78;643.10;;;8.10;99.90;;;;;;6297517;22;20027;-82
2023/12/18 08:01:50;;;;;;;678.75;627.22;;;8.20;99.90;;;;;;6298421;22;20047;-82
2023/12/18 08:04:15;;;;;;;697.17;644.15;;;8.20;99.90;;;;;;6296927;22;20485;-82
2023/12/18 08:06:41;;;;;;;725.67;670.03;;;8.20;99.90;;;;;;6271105;22;20110;-83
2023/12/18 08:09:07;;;;;;;680.95;628.88;;;8.20;99.90;;;;;;6298156;22;20513;-83
2023/12/18 08:11:34;;;;;;;690.58;638.50;;;8.20;99.90;;;;;;6296872;22;20025;-83
2023/12/18 08:14:00;;;;;;;662.33;613.08;;;8.20;99.90;;;;;;6298138;22;20380;-82
2023/12/18 08:16:25;;;;;;;717.55;663.17;;;8.20;99.90;;;;;;6297743;22;20015;-83
2023/12/18 08:18:51;;;;;;;676.22;625.60;;;8.20;99.90;;;;;;6297407;22;20047;-83
2023/12/18 08:21:17;;;;;;;695.33;642.63;;;8.20;99.90;;;;;;6296907;22;20011;-82
2023/12/18 08:23:44;;;;;;;661.88;611.35;;;8.20;99.90;;;;;;6298064;22;20045;-82
2023/12/18 08:26:10;;;;;;;697.17;644.35;;;8.20;99.90;;;;;;6296990;22;20173;-82
2023/12/18 08:28:37;;;;;;;696.05;642.72;;;8.20;99.90;;;;;;6298290;22;20126;-82
2023/12/18 08:31:03;;;;;;;697.35;644.10;;;8.30;99.90;;;;;;6272234;22;20041;-81
2023/12/18 08:33:29;;;;;;;695.90;643.33;;;8.30;99.90;;;;;;6297148;22;20019;-82
2023/12/18 08:35:55;;;;;;;713.10;658.42;;;8.30;99.90;;;;;;6298785;22;20055;-82
2023/12/18 08:38:20;;;;;;;666.45;615.85;;;8.30;99.90;;;;;;6298440;22;20086;-82
2023/12/18 08:40:47;;;;;;;689.10;637.03;;;8.30;99.90;;;;;;6296830;22;20019;-82
2023/12/18 08:43:13;;;;;;;702.05;648.05;;;8.30;99.90;;;;;;6271812;22;20019;-82
2023/12/18 08:45:39;;;;;;;696.72;643.40;;;8.30;99.90;;;;;;6297870;22;20041;-82
2023/12/18 08:48:05;;;;;;;669.15;618.53;;;8.30;99.90;;;;;;6271732;22;20019;-82
2023/12/18 08:50:31;;;;;;;674.42;624.03;;;8.30;99.90;;;;;;6271317;22;20046;-82
2023/12/18 08:52:56;;;;;;;662.22;611.88;;;8.40;99.90;;;;;;6298486;22;20030;-82
2023/12/18 08:55:22;;;;;;;697.13;644.10;;;8.40;99.90;;;;;;6298787;22;20011;-82
2023/12/18 08:57:48;;;;;;;671.33;621.28;;;8.30;99.90;;;;;;6299352;22;20454;-82
2023/12/18 09:00:14;;;;;;;723.70;668.63;;;8.40;99.90;;;;;;6276360;22;20019;-81
2023/12/18 09:02:39;;;;;;;672.50;621.13;;;8.40;99.90;;;;;;6299476;22;20023;-82
2023/12/18 09:05:05;;;;;;;704.15;651.00;;;8.40;99.90;;;;;;6299055;22;20069;-82
2023/12/18 09:07:31;;;;;;;688.17;636.38;;;8.40;99.90;;;;;;6272747;22;20019;-83
2023/12/18 09:09:57;;;;;;;722.88;667.40;;;8.50;99.90;;;;;;6300201;22;20006;-82
2023/12/18 09:12:22;;;;;;;711.80;657.60;;;8.50;99.90;;;;;;6299615;22;20419;-82
2023/12/18 09:14:48;;;;;;;714.35;659.92;;;8.50;99.90;;;;;;6298852;22;20027;-81
2023/12/18 09:17:14;;;;;;;708.88;654.05;;;8.50;99.90;;;;;;6300275;22;20704;-82
2023/12/18 09:19:39;;;;;;;708.97;654.50;;;8.60;99.90;;;;;;6298416;22;20730;-83
2023/12/18 09:22:05;;;;;;;700.42;647.28;;;8.60;99.90;;;;;;6298761;22;20463;-83
2023/12/18 09:24:31;;;;;;;723.45;668.53;;;8.60;99.90;;;;;;6300861;22;20018;-83
2023/12/18 09:26:57;;;;;;;732.70;676.42;;;8.60;99.90;;;;;;6302029;22;20018;-83
2023/12/18 09:29:23;;;;;;;732.22;676.38;;;8.60;99.90;;;;;;6300749;22;20030;-83
2023/12/18 09:31:49;;;;;;;700.10;646.60;;;8.60;99.90;;;;;;6275313;22;20018;-83
2023/12/18 09:34:15;;;;;;;713.38;659.13;;;8.60;99.90;;;;;;6301866;22;20019;-83
2023/12/18 09:36:41;;;;;;;724.60;668.63;;;8.70;99.90;;;;;;6300032;22;20021;-83
2023/12/18 09:39:06;;;;;;;676.97;625.70;;;8.70;99.90;;;;;;6302003;22;20388;-83
2023/12/18 09:41:32;;;;;;;681.15;630.13;;;8.60;99.90;;;;;;6301289;22;20027;-82
2023/12/18 09:43:59;;;;;;;678.65;627.05;;;8.60;99.90;;;;;;6300646;22;20097;-83
2023/12/18 09:46:25;;;;;;;712.08;657.45;;;8.70;99.90;;;;;;6301800;22;20022;-83
2023/12/18 09:48:53;;;;;;;709.92;656.00;;;8.70;99.90;;;;;;6301849;22;20463;-83
2023/12/18 09:51:21;;;;;;;726.08;670.63;;;8.70;99.90;;;;;;6274576;22;20023;-82
2023/12/18 09:53:49;;;;;;;708.22;653.95;;;8.60;99.90;;;;;;6278884;22;20052;-82
2023/12/18 09:56:16;;;;;;;696.40;642.95;;;8.70;99.90;;;;;;6304502;22;20033;-82
2023/12/18 09:58:43;;;;;;;728.00;672.80;;;8.70;99.90;;;;;;6304085;22;20019;-83
2023/12/18 10:01:10;;;;;;;685.60;633.30;;;8.60;99.90;;;;;;6304268;22;20124;-83
2023/12/18 10:03:36;;;;;;;684.83;632.60;;;8.60;99.90;;;;;;6305059;22;20026;-83
2023/12/18 10:06:02;;;;;;;743.35;685.40;;;8.60;99.90;;;;;;6303158;22;20010;-83
2023/12/18 10:08:28;;;;;;;687.42;635.25;;;8.70;99.90;;;;;;6278148;22;20054;-83
2023/12/18 10:10:54;;;;;;;680.90;628.97;;;8.70;99.90;;;;;;6303768;22;20015;-82
2023/12/18 10:13:20;;;;;;;697.53;643.90;;;8.70;99.90;;;;;;6304220;22;20011;-82
2023/12/18 10:15:45;;;;;;;750.53;692.70;;;8.70;99.90;;;;;;6304536;22;20531;-83
2023/12/18 10:18:11;;;;;;;743.13;685.58;;;8.70;99.90;;;;;;6303605;22;20087;-82
2023/12/18 10:20:38;;;;;;;736.42;679.90;;;8.70;99.90;;;;;;6303950;22;20440;-83
2023/12/18 10:23:05;;;;;;;729.13;673.13;;;8.70;99.90;;;;;;6278983;22;20050;-81
2023/12/18 10:25:33;;;;;;;678.97;627.90;;;8.70;99.90;;;;;;6303379;22;20110;-82
2023/12/18 10:27:59;;;;;;;718.15;662.38;;;8.70;99.90;;;;;;6305284;22;20048;-82
2023/12/18 10:30:27;;;;;;;757.97;696.50;;;8.70;99.90;;;;;;6304411;22;20098;-82
2023/12/18 10:32:53;;;;;;;677.25;625.63;;;8.70;99.90;;;;;;6303747;22;20064;-82
2023/12/18 10:35:19;;;;;;;709.97;655.90;;;8.70;99.90;;;;;;6302365;22;20015;-83
2023/12/18 10:37:48;;;;;;;698.58;645.58;;;8.70;99.90;;;;;;6304231;22;20037;-83
2023/12/18 10:40:18;;;;;;;712.45;657.78;;;8.70;99.90;;;;;;6303222;22;20150;-83
2023/12/18 10:42:51;;;;;;;720.20;664.60;;;8.70;99.90;;;;;;6304224;22;20152;-83
2023/12/18 10:45:17;;;;;;;;;;;8.70;99.90;;;;;;6278663;22;20015;-83
2023/12/18 10:47:44;;;;;;;671.83;620.60;;;8.70;99.90;;;;;;6303634;22;19925;-83
2023/12/18 10:50:11;;;;;;;692.60;640.00;;;8.70;99.90;;;;;;6302590;22;20022;-83
2023/12/18 10:52:38;;;;;;;728.78;672.53;;;8.70;99.90;;;;;;6304007;22;20127;-83
2023/12/18 10:55:05;;;;;;;695.78;642.17;;;8.70;99.90;;;;;;6302826;22;20011;-85
2023/12/18 10:57:36;;;;;;;678.25;626.55;;;8.70;99.90;;;;;;6303654;22;20014;-85
2023/12/18 11:00:03;;;;;;;717.00;662.53;;;8.70;99.90;;;;;;6277125;22;20015;-84
2023/12/18 11:02:31;;;;;;;679.08;627.47;;;8.70;99.90;;;;;;6277688;22;20052;-84
2023/12/18 11:04:59;;;;;;;674.72;622.47;;;8.70;99.90;;;;;;6277114;22;20435;-84
2023/12/18 11:07:27;;;;;;;695.63;643.60;;;8.70;99.90;;;;;;6303402;22;20388;-84
2023/12/18 11:09:54;;;;;;;668.92;618.25;;;8.70;99.90;;;;;;6303710;22;20011;-86
2023/12/18 11:12:21;;;;;;;691.38;638.42;;;8.70;99.90;;;;;;6278027;22;20014;-85
2023/12/18 11:15:08;;;;;;;670.83;619.92;;;8.70;99.90;;;;;;6277375;22;20346;-85
2023/12/18 11:17:39;;;;;;;696.80;642.67;;;8.60;99.90;;;;;;6278234;22;20048;-84
2023/12/18 11:20:27;;;;;;;686.05;633.75;;;8.60;99.90;;;;;;6303208;22;20014;-84
2023/12/18 11:22:56;;;;;;;678.38;627.38;;;8.60;99.90;;;;;;6303831;22;20026;-85
2023/12/18 11:25:30;;;;;;;750.38;691.38;;;8.60;99.90;;;;;;6303799;22;20072;-84
2023/12/18 11:27:59;;;;;;;702.88;648.95;;;8.70;99.90;;;;;;6278312;22;20093;-85
2023/12/18 11:30:28;;;;;;;696.08;642.85;;;8.60;99.90;;;;;;6302776;22;20014;-84
2023/12/18 11:32:56;;;;;;;745.45;687.85;;;8.60;99.90;;;;;;6278261;22;20011;-84
2023/12/18 11:35:29;;;;;;;689.00;636.08;;;8.70;99.90;;;;;;6301332;22;20017;-84
2023/12/18 11:38:08;;;;;;;682.90;631.03;;;8.70;99.90;;;;;;6303639;22;20473;-85
2023/12/18 11:40:39;;;;;;;838.47;769.88;;;8.70;99.90;;;;;;6277241;22;20018;-83
2023/12/18 11:43:07;;;;;;;703.50;649.78;;;8.70;99.90;;;;;;6302837;22;20336;-84
2023/12/18 11:45:36;;;;;;;710.97;656.58;;;8.70;99.90;;;;;;6302294;22;20018;-84
2023/12/18 11:48:03;;;;;;;688.53;636.10;;;8.70;99.90;;;;;;6304528;22;20023;-84
2023/12/18 11:50:36;;;;;;;733.05;675.17;;;8.70;99.90;;;;;;6274930;22;20462;-84
2023/12/18 11:53:05;;;;;;;735.45;678.80;;;8.70;99.90;;;;;;6304432;22;20400;-84
2023/12/18 11:55:37;;;;;;;744.95;686.38;;;8.70;99.90;;;;;;6302421;22;20407;-84
2023/12/18 11:58:03;;;;;;;704.75;650.88;;;8.70;99.90;;;;;;6277247;22;20450;-84
2023/12/18 12:00:30;;;;;;;696.03;642.60;;;8.70;99.90;;;;;;6303047;22;20023;-84
2023/12/18 12:02:58;;;;;;;711.42;657.17;;;8.70;99.90;;;;;;6303330;22;20093;-84
2023/12/18 12:05:25;;;;;;;741.28;684.22;;;8.70;99.90;;;;;;6300524;22;20015;-84
2023/12/18 12:07:51;;;;;;;677.53;625.67;;;8.70;99.90;;;;;;6304474;22;20090;-83
2023/12/18 12:10:17;;;;;;;682.38;629.95;;;8.80;99.90;;;;;;6302835;22;20015;-84
2023/12/18 12:12:44;;;;;;;723.53;668.72;;;8.80;99.90;;;;;;6302898;22;20094;-84
2023/12/18 12:15:13;;;;;;;689.10;636.35;;;8.80;99.90;;;;;;6303018;22;20435;-84